Scotby, United Kingdom
Current Conditions -  °F | °C
As of 11:50 AM on Sunday 25 Jan 2015 (Local Time) from EGOM Reporting Station
Drizzle Drizzle  
Wind Chill:   Ceiling: 200
Heat Index:   Visibility: 5mi
Dew Point:   Wind: 14mph
Humidity: 100%   Direction: 250°WSW
Pressure: 30.15"   Gusts: NA
Location:  54.89°N, 2.87°W
Report Text: EGOM 251150Z AUTO 25012KT 8000 -DZ OVC002/// 05/05 Q1021
Loading
Personal Weather Stations






























Interactive Weather Map New forecast layout! Learn more

10-Day Weather Forecast

Advertisements
Track Severe Weather on mobile